Time;durP1;ratioP1;P1;durP2;ratioP2;P2;SDS_P1;SDS_P2;PMS_P1;PMS_P2;Temp;Humidity;BMP_temperature;BMP_pressure;BME280_temperature;BME280_humidity;BME280_pressure;Samples;Min_cycle;Max_cycle;Signal;HPM_P1;HPM_P2
2021/05/03 00:00:28;;;;;;;12.07;7.40;;;5.40;99.90;;;3.81;97.26;101071.09;4871216;28;20089;-81
2021/05/03 00:02:52;;;;;;;13.98;7.20;;;;;;;3.83;96.88;101073.69;4871282;28;20094;-82
2021/05/03 00:05:24;;;;;;;12.80;6.68;;;5.40;99.90;;;3.82;96.73;101072.84;4872533;28;20093;-82
2021/05/03 00:07:47;;;;;;;14.60;6.72;;;5.40;99.90;;;3.81;97.06;101076.31;4871001;28;20518;-81
2021/05/03 00:10:11;;;;;;;11.70;6.53;;;5.40;99.90;;;3.79;97.09;101072.88;4870485;28;20120;-82
2021/05/03 00:12:34;;;;;;;10.13;6.57;;;5.40;99.90;;;3.77;97.16;101069.44;4870443;28;20456;-81
2021/05/03 00:14:57;;;;;;;11.00;6.55;;;5.40;99.90;;;3.77;96.98;101073.78;4868015;28;20147;-80
2021/05/03 00:17:19;;;;;;;14.20;6.78;;;5.40;99.90;;;3.73;96.88;101072.94;4872244;28;20085;-82
2021/05/03 00:19:43;;;;;;;12.65;6.72;;;5.30;99.90;;;3.69;97.53;101072.16;4870747;28;20139;-78
2021/05/03 00:22:06;;;;;;;13.50;7.15;;;5.30;99.90;;;3.67;97.53;101078.22;4872365;28;20423;-83
2021/05/03 00:24:29;;;;;;;11.15;6.75;;;5.30;99.90;;;3.65;97.76;101080.00;4870962;28;20139;-82
2021/05/03 00:26:52;;;;;;;10.85;6.35;;;5.30;99.90;;;3.62;97.69;101085.25;4872336;28;20191;-82
2021/05/03 00:29:14;;;;;;;8.73;5.72;;;5.20;99.90;;;3.60;98.08;101084.41;4872293;28;20083;-82
2021/05/03 00:31:38;;;;;;;16.70;6.60;;;5.20;99.90;;;3.56;98.48;101085.31;4869523;28;20087;-82
2021/05/03 00:34:01;;;;;;;12.23;6.15;;;5.20;99.90;;;3.53;98.40;101086.22;4871728;28;20093;-82
2021/05/03 00:36:24;;;;;;;11.57;6.68;;;5.20;99.90;;;3.54;98.52;101084.47;4853491;28;20091;-82
2021/05/03 00:38:47;;;;;;;10.98;5.78;;;5.20;99.90;;;3.49;98.77;101085.38;4851858;28;20083;-82
2021/05/03 00:41:10;;;;;;;13.45;6.70;;;5.10;99.90;;;3.45;99.02;101088.91;4851620;28;20161;-81
2021/05/03 00:43:33;;;;;;;11.30;6.43;;;5.10;99.90;;;3.42;99.15;101091.56;4853733;28;20553;-81
2021/05/03 00:45:56;;;;;;;10.40;5.63;;;5.10;99.90;;;3.45;100.00;101094.09;4852338;28;20174;-82
2021/05/03 00:48:19;;;;;;;10.68;5.82;;;5.10;99.90;;;3.45;100.00;101088.91;4851948;28;20463;-81
2021/05/03 00:50:43;;;;;;;11.77;7.00;;;5.10;99.90;;;3.47;100.00;101094.09;4850692;28;20092;-78
2021/05/03 00:53:08;;;;;;;12.43;6.45;;;5.10;99.90;;;3.52;100.00;101094.03;4852801;28;20517;-82
2021/05/03 00:55:31;;;;;;;11.43;6.05;;;;;;;3.54;100.00;101097.50;4851154;28;20142;-82
2021/05/03 00:57:54;;;;;;;12.35;6.22;;;5.20;99.90;;;3.57;100.00;101097.47;4852634;28;20087;-77
2021/05/03 01:00:18;;;;;;;11.75;5.75;;;5.20;99.90;;;3.61;100.00;101097.41;4854342;28;20092;-82
2021/05/03 01:02:41;;;;;;;14.77;7.80;;;5.20;99.90;;;3.62;100.00;101101.72;4851501;28;20553;-82
2021/05/03 01:05:05;;;;;;;12.05;6.40;;;5.20;99.90;;;3.59;100.00;101093.97;4852597;28;20087;-81
2021/05/03 01:07:27;;;;;;;12.50;6.53;;;5.20;99.90;;;3.63;100.00;101097.41;4870265;28;20088;-82
2021/05/03 01:09:51;;;;;;;10.38;6.20;;;5.20;99.90;;;3.61;100.00;101099.16;4871673;28;20083;-83
2021/05/03 01:12:14;;;;;;;11.98;6.15;;;5.20;99.90;;;3.63;100.00;101106.06;4870935;28;20088;-83
2021/05/03 01:14:37;;;;;;;11.07;5.80;;;5.20;99.90;;;3.60;100.00;101097.41;4871308;28;20133;-82
2021/05/03 01:17:01;;;;;;;9.43;5.32;;;5.30;99.90;;;3.75;100.00;101099.84;4870750;28;20126;-76
2021/05/03 01:19:24;;;;;;;10.38;5.93;;;5.50;99.90;;;3.94;100.00;101097.00;4872218;28;20607;-83
2021/05/03 01:21:48;;;;;;;11.63;6.40;;;5.60;99.90;;;4.04;100.00;101099.47;4870339;28;20151;-80
2021/05/03 01:24:11;;;;;;;13.82;6.53;;;5.70;99.90;;;4.09;100.00;101094.19;4870205;28;20085;-82
2021/05/03 01:26:34;;;;;;;12.85;6.00;;;5.70;99.90;;;4.15;100.00;101096.72;4870045;28;20091;-79
2021/05/03 01:28:57;;;;;;;13.98;6.93;;;5.80;99.90;;;4.19;100.00;101097.50;4854701;28;20101;-83
2021/05/03 01:31:20;;;;;;;14.43;6.93;;;5.80;99.90;;;4.23;100.00;101101.81;4869782;28;20533;-83
2021/05/03 01:33:43;;;;;;;13.65;6.70;;;5.80;99.90;;;4.26;99.68;101102.63;4870824;28;20449;-82
2021/05/03 01:36:07;;;;;;;21.08;6.63;;;5.80;99.90;;;4.25;99.84;101095.69;4868788;28;20093;-83
2021/05/03 01:38:31;;;;;;;13.25;6.15;;;5.90;99.90;;;4.29;99.64;101096.50;4868231;28;20108;-83
2021/05/03 01:40:54;;;;;;;14.35;5.63;;;5.90;99.90;;;4.29;99.64;101094.75;4871857;28;20089;-84
2021/05/03 01:43:20;;;;;;;12.75;5.63;;;5.90;99.90;;;4.33;98.62;101100.78;4869280;28;20189;-82
2021/05/03 01:45:45;;;;;;;13.07;5.65;;;5.90;99.90;;;4.30;98.73;101095.63;4867623;28;20089;-83
2021/05/03 01:48:10;;;;;;;13.50;5.47;;;5.90;99.90;;;4.34;98.61;101101.66;4868302;28;20085;-82
2021/05/03 01:50:35;;;;;;;10.52;4.88;;;5.90;99.90;;;4.32;99.42;101101.69;4869837;28;20085;-83
2021/05/03 01:52:58;;;;;;;9.32;5.07;;;5.90;99.90;;;4.29;99.62;101101.72;4868358;28;20238;-79
2021/05/03 01:55:22;;;;;;;8.85;5.00;;;5.90;99.90;;;4.26;99.78;101094.81;4872094;28;20092;-83
2021/05/03 01:57:45;;;;;;;11.93;5.93;;;5.80;99.90;;;4.25;100.00;101100.88;4867100;28;20152;-85
2021/05/03 02:00:10;;;;;;;9.43;4.93;;;5.80;99.90;;;4.24;100.00;101100.94;4870154;28;20089;-83
2021/05/03 02:02:33;;;;;;;15.35;5.25;;;;;;;4.25;100.00;101100.03;4869525;28;20097;-82
2021/05/03 02:04:56;;;;;;;12.00;5.25;;;5.80;99.90;;;4.24;100.00;101101.78;4870572;28;20078;-82
2021/05/03 02:07:19;;;;;;;11.18;4.72;;;5.80;99.90;;;4.26;100.00;101107.00;4867094;28;20081;-85
2021/05/03 02:09:43;;;;;;;10.07;4.88;;;5.80;99.90;;;4.25;100.00;101106.09;4868010;28;20093;-81
2021/05/03 02:12:08;;;;;;;15.52;5.70;;;5.80;99.90;;;4.24;100.00;101100.94;4869388;28;20112;-79
2021/05/03 02:14:31;;;;;;;10.63;5.18;;;5.80;99.90;;;4.27;100.00;101103.47;4870673;28;20117;-84
2021/05/03 02:16:53;;;;;;;9.43;5.22;;;5.80;99.90;;;4.26;100.00;101096.56;4867072;28;20073;-83
2021/05/03 02:19:16;;;;;;;9.35;5.63;;;5.80;99.90;;;4.27;100.00;101106.09;4870093;28;20159;-82
2021/05/03 02:21:39;;;;;;;7.93;4.63;;;5.80;99.90;;;4.26;100.00;101099.16;4869765;28;20085;-84
2021/05/03 02:24:02;;;;;;;14.02;5.68;;;5.80;99.90;;;4.26;100.00;101101.78;4868353;28;20105;-82
2021/05/03 02:26:25;;;;;;;10.70;5.57;;;5.80;99.90;;;4.26;100.00;101097.41;4870837;28;20093;-82
2021/05/03 02:28:51;;;;;;;13.73;6.43;;;5.80;99.90;;;4.28;100.00;101102.63;4868574;28;20526;-83
2021/05/03 02:31:14;;;;;;;13.77;7.30;;;5.90;99.90;;;4.29;100.00;101099.97;4870043;28;20525;-79
2021/05/03 02:33:37;;;;;;;13.00;7.18;;;5.90;99.90;;;4.37;100.00;101101.63;4871470;28;20448;-81
2021/05/03 02:36:00;;;;;;;12.77;6.90;;;5.90;99.90;;;4.31;100.00;101106.03;4873842;28;20159;-83
2021/05/03 02:38:25;;;;;;;15.40;7.05;;;5.90;99.90;;;4.35;100.00;101104.25;4870045;28;20127;-81
2021/05/03 02:40:48;;;;;;;13.13;6.60;;;5.90;99.90;;;4.40;100.00;101098.94;4873894;28;21136;-80
2021/05/03 02:43:10;;;;;;;13.55;7.15;;;5.90;99.90;;;4.36;100.00;101099.88;4873448;28;20089;-80
2021/05/03 02:45:35;;;;;;;13.43;6.80;;;6.00;99.90;;;4.36;100.00;101105.09;4875231;28;20147;-83
2021/05/03 02:48:00;;;;;;;12.85;6.70;;;5.90;99.90;;;4.37;100.00;101099.00;4871655;28;20293;-82
2021/05/03 02:50:24;;;;;;;17.13;7.43;;;5.90;99.90;;;4.36;100.00;101094.66;4872400;28;20085;-83
2021/05/03 02:52:47;;;;;;;17.50;6.95;;;5.90;99.90;;;4.36;100.00;101098.13;4873124;28;20092;-81
2021/05/03 02:55:12;;;;;;;15.95;7.55;;;5.90;99.90;;;4.33;100.00;101092.97;4874156;28;20521;-82
2021/05/03 02:57:35;;;;;;;16.55;6.53;;;5.90;99.90;;;4.31;100.00;101103.41;4870272;28;20085;-84
2021/05/03 02:59:58;;;;;;;21.73;7.38;;;5.90;99.90;;;4.28;100.00;101102.63;4873093;28;20092;-82
2021/05/03 03:02:21;;;;;;;18.67;7.63;;;5.90;99.90;;;4.29;100.00;101104.31;4872835;28;20120;-79
2021/05/03 03:04:44;;;;;;;19.50;7.38;;;5.80;99.90;;;4.28;100.00;101100.88;4872878;28;20120;-82
2021/05/03 03:07:07;;;;;;;12.43;6.32;;;5.80;99.90;;;4.30;100.00;101111.28;4871919;28;20104;-83
2021/05/03 03:09:30;;;;;;;12.27;6.05;;;5.80;99.90;;;4.29;100.00;101107.78;4872166;28;20086;-82
2021/05/03 03:11:53;;;;;;;12.50;6.28;;;5.80;99.90;;;4.26;100.00;101100.03;4873299;28;20095;-82
2021/05/03 03:14:16;;;;;;;12.20;5.85;;;5.90;99.90;;;4.32;99.82;101099.09;4873415;28;20128;-82
2021/05/03 03:16:39;;;;;;;17.52;6.45;;;5.80;99.90;;;4.26;100.00;101105.25;4870837;28;20122;-84
2021/05/03 03:19:02;;;;;;;14.95;6.05;;;5.80;99.90;;;4.24;99.76;101107.00;4871811;28;20090;-84
2021/05/03 03:21:26;;;;;;;15.55;5.97;;;5.80;99.90;;;4.20;99.35;101104.47;4874060;28;20082;-83
2021/05/03 03:23:49;;;;;;;12.75;6.03;;;5.70;99.90;;;4.09;99.78;101102.88;4872479;28;20087;-83
2021/05/03 03:26:12;;;;;;;14.23;5.80;;;5.60;99.90;;;4.03;99.68;101099.47;4873332;28;20525;-84
2021/05/03 03:28:34;;;;;;;10.43;5.32;;;5.60;99.90;;;4.02;99.84;101106.44;4872008;28;20116;-83
2021/05/03 03:30:57;;;;;;;11.18;4.95;;;5.60;99.90;;;4.06;99.85;101113.34;4873424;28;20079;-84
2021/05/03 03:33:20;;;;;;;9.48;4.75;;;5.60;99.90;;;4.01;100.00;101111.66;4872001;28;20152;-81
2021/05/03 03:35:44;;;;;;;13.13;5.50;;;5.60;99.90;;;4.01;99.87;101109.91;4873318;28;20172;-82
2021/05/03 03:38:06;;;;;;;13.05;5.53;;;5.60;99.90;;;4.02;99.75;101111.66;4869967;28;20101;-83
2021/05/03 03:40:29;;;;;;;8.70;5.25;;;5.60;99.90;;;3.99;99.57;101105.63;4871607;28;20552;-84
2021/05/03 03:42:52;;;;;;;14.80;5.60;;;5.50;99.90;;;3.97;99.76;101113.44;4872229;28;23179;-83
2021/05/03 03:45:17;;;;;;;11.02;5.82;;;5.60;99.90;;;3.97;99.85;101112.59;4872376;28;20097;-77
2021/05/03 03:47:41;;;;;;;14.70;5.70;;;;;;;3.99;99.74;101113.44;4871511;28;20639;-84
2021/05/03 03:50:07;;;;;;;15.77;5.63;;;5.60;99.90;;;3.97;99.79;101103.03;4871397;28;20087;-83
2021/05/03 03:52:31;;;;;;;12.18;4.93;;;5.50;99.90;;;3.98;99.75;101114.31;4870609;28;20089;-84
2021/05/03 03:54:54;;;;;;;13.27;5.53;;;5.60;99.90;;;4.00;99.77;101117.78;4872857;28;20102;-78
2021/05/03 03:57:17;;;;;;;9.80;4.88;;;5.60;99.90;;;3.99;99.79;101110.81;4872311;28;20077;-81
2021/05/03 03:59:42;;;;;;;11.75;5.60;;;5.50;99.90;;;3.92;99.51;101110.03;4872134;28;20089;-80
2021/05/03 04:02:06;;;;;;;11.98;4.30;;;5.40;99.90;;;3.88;99.91;101113.56;4872085;28;20093;-83
2021/05/03 04:04:31;;;;;;;8.55;4.53;;;5.40;99.90;;;3.85;100.00;101124.91;4870489;28;20683;-83
2021/05/03 04:06:58;;;;;;;9.00;4.40;;;5.40;99.90;;;3.90;99.62;101127.44;4870355;28;20105;-82
2021/05/03 04:09:30;;;;;;;14.30;4.72;;;5.50;99.90;;;3.92;100.00;101125.69;4870773;28;20135;-83
2021/05/03 04:12:13;;;;;;;12.18;5.22;;;5.50;99.90;;;3.97;99.89;101123.00;4871157;28;20095;-80
2021/05/03 04:25:34;;;;;;;11.70;4.18;;;5.60;99.90;;;4.04;99.60;101135.94;4844830;28;20125;-83
2021/05/03 04:27:56;;;;;;;11.93;4.82;;;5.60;99.90;;;4.12;99.22;101128.00;4871240;28;20499;-82
2021/05/03 04:30:20;;;;;;;14.45;5.32;;;5.70;99.90;;;4.17;99.44;101134.06;4871108;28;20085;-81
2021/05/03 04:32:43;;;;;;;19.27;5.78;;;5.70;99.90;;;4.22;98.70;101129.63;4870516;28;20522;-83
2021/05/03 04:35:08;;;;;;;9.18;4.15;;;5.80;99.90;;;4.29;98.56;101135.59;4871093;28;20151;-83
2021/05/03 04:37:31;;;;;;;12.50;5.45;;;5.80;99.90;;;4.35;97.38;101140.75;4868754;28;20128;-84
2021/05/03 04:39:54;;;;;;;10.70;5.13;;;5.80;99.90;;;4.33;97.93;101142.50;4870271;28;20125;-83
2021/05/03 04:42:18;;;;;;;11.80;4.43;;;5.80;99.90;;;4.33;97.24;101134.69;4869486;28;20089;-83
2021/05/03 04:44:40;;;;;;;7.25;3.88;;;5.80;99.90;;;4.27;97.48;101139.97;4871309;28;20081;-83
2021/05/03 04:47:03;;;;;;;16.27;4.50;;;5.80;99.90;;;4.23;97.97;101136.56;4870371;28;20525;-83
2021/05/03 04:49:26;;;;;;;7.80;3.67;;;5.80;99.90;;;4.26;97.39;101140.88;4868736;28;20524;-85
2021/05/03 04:51:49;;;;;;;6.50;3.75;;;5.80;99.90;;;4.23;96.83;101141.78;4871766;28;20580;-84
2021/05/03 04:54:12;;;;;;;9.90;4.05;;;5.80;99.90;;;4.25;97.50;101145.22;4869419;28;20095;-84
2021/05/03 04:56:35;;;;;;;8.52;4.10;;;5.80;99.90;;;4.31;97.46;101145.13;4871561;28;20084;-85
2021/05/03 04:58:58;;;;;;;10.88;3.67;;;5.80;99.90;;;4.31;97.27;101146.88;4868794;28;20094;-80
2021/05/03 05:01:21;;;;;;;8.70;3.75;;;5.80;99.90;;;4.34;97.19;101148.56;4871043;28;20089;-84
2021/05/03 05:03:44;;;;;;;5.90;3.55;;;5.80;99.90;;;4.32;97.13;101143.41;4871145;28;20088;-83
2021/05/03 05:06:09;;;;;;;9.25;3.45;;;5.80;99.90;;;4.30;96.85;101150.38;4870782;28;20085;-83
2021/05/03 05:08:32;;;;;;;14.35;3.95;;;5.80;99.90;;;4.31;96.49;101144.28;4869756;28;20082;-83
2021/05/03 05:10:55;;;;;;;13.77;3.67;;;5.90;99.90;;;4.38;97.16;101142.44;4869661;28;20092;-82
2021/05/03 05:13:18;;;;;;;9.57;3.65;;;5.90;99.90;;;4.42;97.02;101139.75;4871082;28;20132;-83
2021/05/03 05:15:42;;;;;;;8.70;3.72;;;;;;;4.48;95.77;101139.69;4870627;28;20109;-83
2021/05/03 05:18:07;;;;;;;7.53;3.10;;;6.00;99.90;;;4.47;96.56;101142.28;4870898;28;20086;-82
2021/05/03 05:20:30;;;;;;;9.57;3.25;;;;;;;4.47;95.90;101139.69;4869581;28;20659;-83
2021/05/03 05:22:53;;;;;;;8.52;3.97;;;6.00;99.90;;;4.49;95.77;101143.13;4871307;28;20089;-82
2021/05/03 05:25:16;;;;;;;12.70;3.90;;;6.00;99.90;;;4.58;96.61;101143.03;4868723;28;20560;-82
2021/05/03 05:27:39;;;;;;;8.80;3.92;;;6.10;99.90;;;4.65;95.96;101143.78;4872872;28;20082;-83
2021/05/03 05:30:03;;;;;;;19.88;4.40;;;;;;;4.70;96.16;101140.19;4870868;28;20085;-84
2021/05/03 05:32:27;;;;;;;8.73;3.90;;;6.10;99.90;;;4.68;95.31;101141.97;4870036;28;20079;-80
2021/05/03 05:34:50;;;;;;;7.90;3.95;;;6.20;99.90;;;4.72;95.48;101142.78;4872181;28;20081;-84
2021/05/03 05:37:13;;;;;;;9.02;3.72;;;6.20;99.90;;;4.69;94.30;101143.72;4870830;28;20090;-82
2021/05/03 05:39:35;;;;;;;11.80;3.67;;;6.10;99.90;;;4.66;95.00;101142.88;4869672;28;20078;-84
2021/05/03 05:41:59;;;;;;;14.43;3.80;;;6.20;99.90;;;4.71;94.84;101144.56;4869877;28;20092;-81
2021/05/03 05:44:22;;;;;;;13.20;3.80;;;6.20;99.90;;;4.74;94.56;101143.63;4870635;28;20077;-82
2021/05/03 05:46:47;;;;;;;9.35;3.42;;;6.20;99.90;;;4.73;94.16;101150.59;4869242;28;20139;-78
2021/05/03 05:49:11;;;;;;;11.18;3.63;;;6.20;99.90;;;4.72;94.16;101146.25;4869400;28;20540;-83
2021/05/03 05:51:35;;;;;;;7.63;3.47;;;6.20;99.90;;;4.73;94.83;101153.22;4848616;28;20087;-82
2021/05/03 05:53:58;;;;;;;13.40;3.03;;;6.20;99.90;;;4.78;94.93;101149.69;4851170;28;20584;-82
2021/05/03 05:56:21;;;;;;;10.43;3.33;;;6.20;99.90;;;4.80;94.16;101146.16;4851124;28;20147;-80
2021/05/03 05:58:44;;;;;;;5.85;2.95;;;6.20;99.90;;;4.77;93.77;101143.56;4852117;28;20115;-82
2021/05/03 06:01:07;;;;;;;8.00;3.03;;;6.20;99.90;;;4.71;94.08;101148.91;4848184;28;20083;-80
2021/05/03 06:03:30;;;;;;;5.55;3.03;;;6.20;99.90;;;4.74;94.14;101151.47;4853307;28;20088;-83
2021/05/03 06:05:54;;;;;;;7.20;2.78;;;;;;;4.81;93.74;101160.06;4850540;28;20078;-84
2021/05/03 06:08:17;;;;;;;6.38;2.55;;;6.20;99.90;;;4.81;93.01;101158.28;4853289;28;20083;-83
2021/05/03 06:10:39;;;;;;;5.22;2.67;;;6.20;99.90;;;4.82;92.93;101161.78;4855699;28;20985;-82
2021/05/03 06:13:02;;;;;;;3.75;2.00;;;6.20;99.90;;;4.77;93.39;101159.22;4855544;28;20097;-82
2021/05/03 06:15:25;;;;;;;7.28;2.55;;;6.20;99.90;;;4.85;93.70;101159.13;4856623;28;20100;-82
2021/05/03 06:17:48;;;;;;;4.82;2.35;;;6.30;99.90;;;4.89;93.26;101158.19;4853478;28;21294;-83
2021/05/03 06:20:13;;;;;;;6.93;1.85;;;6.40;99.90;;;4.94;92.72;101153.75;4855687;28;20089;-83
2021/05/03 06:22:37;;;;;;;5.17;2.33;;;6.40;99.90;;;5.05;93.29;101157.03;4872360;28;20247;-83
2021/05/03 06:25:00;;;;;;;3.35;1.92;;;6.50;99.90;;;5.04;93.11;101150.09;4874129;28;20508;-79
2021/05/03 06:27:23;;;;;;;10.00;2.20;;;6.40;99.90;;;4.99;92.63;101159.75;4872528;28;20131;-83
2021/05/03 06:29:46;;;;;;;2.47;1.80;;;6.30;99.90;;;4.81;92.66;101171.34;4857077;28;20086;-82
2021/05/03 06:32:09;;;;;;;9.38;2.10;;;6.20;99.90;;;4.70;93.28;101168.03;4853300;28;20086;-81
2021/05/03 06:34:32;;;;;;;3.67;2.08;;;6.20;99.90;;;4.70;93.08;101161.06;4856209;28;20103;-81
2021/05/03 06:36:54;;;;;;;3.83;2.00;;;6.20;99.90;;;4.78;93.77;101165.34;4853628;28;20098;-82
2021/05/03 06:39:18;;;;;;;3.13;1.77;;;6.30;99.90;;;4.94;94.24;101166.78;4857061;28;20086;-82
2021/05/03 06:41:42;;;;;;;6.78;2.30;;;6.40;99.90;;;5.04;92.90;101157.06;4853035;28;20121;-81
2021/05/03 06:44:05;;;;;;;2.38;1.65;;;6.50;99.90;;;5.09;91.47;101163.91;4856147;28;20144;-83
2021/05/03 06:46:28;;;;;;;7.05;1.90;;;6.60;99.90;;;5.18;92.32;101169.88;4853907;28;20097;-81
2021/05/03 06:48:51;;;;;;;2.03;1.40;;;6.50;99.90;;;5.22;90.71;101167.19;4853953;28;20097;-82
2021/05/03 06:51:14;;;;;;;3.55;1.60;;;6.70;99.90;;;5.39;91.74;101163.44;4872081;28;20077;-82
2021/05/03 06:53:36;;;;;;;2.47;1.48;;;6.80;99.90;;;5.47;90.12;101166.75;4873316;28;20093;-81
2021/05/03 06:56:00;;;;;;;2.38;1.27;;;6.80;99.90;;;5.46;89.44;101171.09;4872399;28;20089;-79
2021/05/03 06:58:23;;;;;;;3.83;1.02;;;6.90;99.90;;;5.66;89.27;101162.03;4872357;28;20086;-82
2021/05/03 07:00:46;;;;;;;2.05;0.85;;;7.10;99.90;;;5.81;89.10;101177.44;4871014;28;20092;-79
2021/05/03 07:03:10;;;;;;;2.70;1.48;;;7.10;99.90;;;5.84;87.26;101174.75;4869470;28;20521;-78
2021/05/03 07:05:33;;;;;;;6.30;1.10;;;7.00;99.90;;;5.66;88.18;101175.97;4874016;28;20094;-81
2021/05/03 07:07:56;;;;;;;9.45;1.73;;;7.00;99.90;;;5.78;88.57;101176.63;4869887;28;20436;-82
2021/05/03 07:10:18;;;;;;;2.85;1.40;;;7.30;99.90;;;6.19;87.88;101185.41;4874373;28;20499;-82
2021/05/03 07:12:46;;;;;;;2.28;1.27;;;7.40;99.90;;;6.23;87.72;101174.00;4871186;28;20521;-80
2021/05/03 07:15:12;;;;;;;5.05;1.58;;;7.20;99.90;;;5.91;89.40;101188.56;4872191;28;20131;-78
2021/05/03 07:17:35;;;;;;;4.47;2.15;;;7.00;99.90;;;5.65;91.03;101176.00;4871372;28;20185;-82
2021/05/03 07:20:00;;;;;;;2.92;1.77;;;6.80;99.90;;;5.37;92.65;101183.47;4870999;28;20591;-81
2021/05/03 07:22:24;;;;;;;5.93;1.92;;;6.50;99.90;;;5.19;94.17;101184.69;4870398;28;20135;-82
2021/05/03 07:24:47;;;;;;;4.40;2.22;;;;;;;5.04;95.42;101181.41;4871466;28;20085;-82
2021/05/03 07:27:12;;;;;;;5.38;2.00;;;6.30;99.90;;;4.83;94.88;101192.19;4871521;28;20455;-80
2021/05/03 07:29:36;;;;;;;4.90;2.13;;;6.20;99.90;;;4.73;96.23;101186.28;4871303;28;20089;-81
2021/05/03 07:31:59;;;;;;;7.63;2.42;;;6.10;99.90;;;4.64;96.04;101196.81;4872700;28;20128;-81
2021/05/03 07:34:21;;;;;;;4.32;2.60;;;6.10;99.90;;;4.64;96.78;101194.22;4872864;28;20449;-81
2021/05/03 07:36:44;;;;;;;4.03;2.55;;;6.10;99.90;;;4.67;96.78;101195.03;4871906;28;20087;-82
2021/05/03 07:39:07;;;;;;;7.00;2.70;;;6.10;99.90;;;4.63;96.97;101195.97;4871882;28;20089;-83
2021/05/03 07:41:30;;;;;;;10.60;2.88;;;6.10;99.90;;;4.67;97.14;101192.44;4871611;28;20079;-80
2021/05/03 07:43:53;;;;;;;4.90;2.63;;;6.20;99.90;;;4.73;96.51;101197.56;4870312;28;20090;-81
2021/05/03 07:46:24;;;;;;;5.18;3.17;;;;;;;4.89;96.64;101192.97;4870997;28;20089;-81
2021/05/03 07:48:47;;;;;;;4.53;3.03;;;6.40;99.90;;;5.04;96.21;101197.09;4869216;28;20090;-83
2021/05/03 07:51:10;;;;;;;8.20;3.60;;;6.50;99.90;;;5.16;95.52;101184.72;4869720;28;20082;-81
2021/05/03 07:53:32;;;;;;;14.10;3.38;;;6.70;99.90;;;5.43;95.70;101192.06;4871885;28;20078;-82
2021/05/03 07:55:55;;;;;;;4.50;2.50;;;7.00;99.90;;;5.79;93.06;101192.28;4870216;28;20089;-81
2021/05/03 07:58:18;;;;;;;7.07;2.85;;;7.30;99.90;;;6.19;92.29;101195.88;4870943;28;20089;-80
2021/05/03 08:00:41;;;;;;;7.03;2.83;;;;;;;6.31;91.68;101201.72;4869349;28;20085;-77
2021/05/03 08:03:05;;;;;;;7.50;3.08;;;7.60;99.90;;;6.45;91.11;101192.69;4872122;28;20164;-80
2021/05/03 08:05:29;;;;;;;6.22;2.78;;;7.80;99.90;;;6.58;91.19;101202.00;4870910;28;20520;-81
2021/05/03 08:07:52;;;;;;;12.10;2.47;;;7.70;99.90;;;6.38;90.77;101205.06;4867878;28;20101;-82
2021/05/03 08:10:15;;;;;;;11.80;2.70;;;7.60;99.90;;;6.37;90.44;101203.31;4871621;28;20577;-80
2021/05/03 08:12:37;;;;;;;9.98;2.60;;;7.60;99.90;;;6.40;89.87;101202.41;4870505;28;20089;-80
2021/05/03 08:15:09;;;;;;;11.95;2.60;;;7.50;99.90;;;6.15;90.03;101210.75;4871350;28;20093;-80
2021/05/03 08:17:32;;;;;;;6.13;2.63;;;;;;;6.06;90.67;101213.56;4870802;28;20082;-80
2021/05/03 08:19:56;;;;;;;7.88;2.20;;;7.40;99.90;;;6.02;90.49;101217.97;4869028;28;20093;-77
2021/05/03 08:22:19;;;;;;;6.13;2.20;;;7.40;99.90;;;6.01;91.44;101229.34;4871845;28;20097;-82
2021/05/03 08:24:42;;;;;;;3.92;2.20;;;7.30;99.90;;;5.94;90.21;101231.22;4870029;28;20081;-82
2021/05/03 08:27:07;;;;;;;11.13;2.78;;;7.20;99.90;;;5.90;90.83;101228.66;4870076;28;22820;-81
2021/05/03 08:29:30;;;;;;;;;;;7.30;99.90;;;5.93;91.08;101234.69;4870242;28;20092;-82
2021/05/03 08:31:54;;;;;;;6.13;2.15;;;7.50;99.90;;;6.26;89.71;101236.69;4870818;28;20338;-81
2021/05/03 08:34:17;;;;;;;5.10;2.05;;;7.70;99.90;;;6.40;87.78;101239.03;4870696;28;20089;-77
2021/05/03 08:36:41;;;;;;;3.88;1.60;;;7.80;99.90;;;6.45;87.17;101237.16;4872031;28;20090;-82
2021/05/03 08:39:06;;;;;;;3.00;1.60;;;7.70;99.90;;;6.20;87.12;101237.69;4869541;28;20749;-80
2021/05/03 08:41:29;;;;;;;8.18;1.73;;;7.60;99.90;;;6.18;87.75;101239.47;4868312;28;20089;-82
2021/05/03 08:43:53;;;;;;;3.88;1.50;;;7.50;99.90;;;6.12;87.65;101240.44;4870979;28;20089;-79
2021/05/03 08:46:26;;;;;;;3.45;1.50;;;7.50;99.90;;;6.14;87.32;101237.81;4867971;28;20117;-76
2021/05/03 08:48:55;;;;;;;1.98;1.40;;;7.50;99.90;;;6.19;86.02;101225.50;4869221;28;20089;-81
2021/05/03 08:51:30;;;;;;;2.50;1.42;;;7.60;99.90;;;6.45;87.64;101238.03;4869540;28;20095;-81
2021/05/03 08:54:01;;;;;;;5.45;1.42;;;8.00;99.90;;;6.97;85.95;101226.38;4868316;28;20088;-79
2021/05/03 08:56:24;;;;;;;2.70;1.23;;;8.30;99.90;;;7.22;81.78;101223.19;4872129;28;20088;-80
2021/05/03 08:58:47;;;;;;;5.90;1.38;;;8.50;99.90;;;7.46;80.79;101234.81;4868250;28;20119;-80
2021/05/03 09:01:16;;;;;;;3.33;1.10;;;8.70;99.90;;;7.56;80.68;101228.44;4854294;28;20088;-80
2021/05/03 09:03:58;;;;;;;2.40;1.17;;;8.60;99.90;;;7.33;83.00;101223.78;4824179;28;20090;-80
2021/05/03 09:06:33;;;;;;;3.55;1.40;;;9.10;99.90;;;8.04;77.99;101218.44;4786772;28;20510;-78
2021/05/03 09:09:40;;;;;;;3.58;1.05;;;9.30;99.90;;;8.43;78.04;101233.94;4813947;28;20091;-76
2021/05/03 09:12:24;;;;;;;1.67;0.73;;;9.60;99.90;;;8.45;76.14;101226.91;4797489;28;20082;-80
2021/05/03 09:15:27;;;;;;;1.35;0.60;;;9.80;99.90;;;8.62;75.49;101214.13;4810198;28;20089;-79
2021/05/03 09:18:16;;;;;;;4.30;1.00;;;10.00;99.90;;;9.08;74.50;101230.19;4811015;28;20089;-80
2021/05/03 09:20:59;;;;;;;1.60;0.60;;;10.30;99.90;;;9.19;71.08;101218.41;4808672;28;20086;-79
2021/05/03 09:23:54;;;;;;;0.93;0.47;;;10.50;99.90;;;8.85;73.07;101216.00;4814425;28;20093;-80
2021/05/03 09:26:55;;;;;;;2.90;0.85;;;10.50;99.90;;;9.04;71.59;101221.53;4795492;28;20110;-80
2021/05/03 09:30:01;;;;;;;2.90;1.10;;;10.20;99.90;;;9.41;72.17;101225.56;4796406;28;20186;-80
2021/05/03 09:32:41;;;;;;;1.98;0.70;;;10.20;99.90;;;9.02;70.34;101220.72;4786961;28;21374;-78
2021/05/03 09:35:47;;;;;;;1.52;1.02;;;10.30;99.90;;;9.38;71.09;101216.03;4781494;28;20097;-80
2021/05/03 09:38:55;;;;;;;1.25;0.80;;;10.30;99.90;;;9.61;68.95;101222.25;4774862;28;20826;-78
2021/05/03 09:42:08;;;;;;;4.43;0.70;;;10.50;99.90;;;9.44;69.17;101228.13;4766643;28;20082;-78
2021/05/03 09:49:01;;;;;;;5.22;0.88;;;10.00;99.90;;;9.14;73.54;101232.63;4786825;28;20105;-78
2021/05/03 09:51:49;;;;;;;2.50;0.85;;;10.60;99.90;;;9.55;70.98;101223.34;4791759;28;20848;-82
2021/05/03 09:54:36;;;;;;;3.80;0.93;;;10.50;99.90;;;9.44;70.22;101226.34;4771279;28;20077;-77
2021/05/03 10:04:42;;;;;;;2.65;0.90;;;10.30;99.90;;;9.50;71.91;101229.66;4767249;28;20078;-80
2021/05/03 10:07:38;;;;;;;;;;;10.40;99.90;;;9.91;65.02;101232.63;4788880;28;20551;-80
2021/05/03 10:17:49;;;;;;;0.95;0.60;;;10.50;99.90;;;9.04;66.39;101237.31;4768636;28;20148;-81
2021/05/03 10:20:19;;;;;;;2.05;0.75;;;10.10;99.90;;;8.58;68.75;101244.84;4776982;28;22414;-80
2021/05/03 10:23:32;;;;;;;3.22;0.82;;;10.00;99.90;;;8.82;69.63;101237.13;4767355;28;20434;-80
2021/05/03 10:29:46;;;;;;;2.15;0.70;;;9.80;99.90;;;8.65;67.83;101244.66;4752207;28;20148;-82
2021/05/03 10:32:44;;;;;;;1.33;0.60;;;9.70;99.90;;;8.14;69.19;101244.34;4768531;28;20086;-78
2021/05/03 10:35:37;;;;;;;1.05;0.80;;;9.10;99.90;;;7.54;72.92;101245.09;4756583;28;20127;-81
2021/05/03 10:38:22;;;;;;;1.08;0.65;;;9.10;99.90;;;7.74;72.60;101244.56;4789100;28;20687;-80
2021/05/03 10:40:47;;;;;;;0.60;0.57;;;9.00;99.90;;;7.59;71.74;101256.31;4764945;28;20139;-81
2021/05/03 10:43:54;;;;;;;2.33;0.90;;;9.10;99.90;;;8.06;71.06;101245.47;4779997;28;20118;-79
2021/05/03 10:49:33;;;;;;;1.95;0.60;;;10.10;99.90;;;8.97;66.36;101238.41;4776585;28;20170;-81
2021/05/03 10:52:54;;;;;;;2.55;0.70;;;10.10;99.90;;;8.80;66.76;101242.41;4780967;28;20091;-84
2021/05/03 10:55:43;;;;;;;6.28;0.70;;;9.80;99.90;;;8.37;66.59;101255.94;4794361;28;20500;-80
2021/05/03 10:58:06;;;;;;;4.43;0.68;;;9.40;99.90;;;7.93;69.00;101251.03;4832130;28;20092;-81
2021/05/03 11:00:32;;;;;;;0.73;0.40;;;9.20;99.90;;;7.78;68.85;101257.56;4852610;28;20095;-79